createdAt,value
2023-02-19T00:01:36.194Z,9.90
2023-02-19T00:04:19.289Z,9.68
2023-02-19T00:06:47.836Z,9.53
2023-02-19T00:09:17.436Z,8.73
2023-02-19T00:11:46.164Z,8.35
2023-02-19T00:14:19.265Z,7.40
2023-02-19T00:16:46.629Z,8.40
2023-02-19T00:19:16.762Z,7.60
2023-02-19T00:21:43.804Z,7.38
2023-02-19T00:24:12.544Z,8.27
2023-02-19T00:26:40.811Z,7.10
2023-02-19T00:29:07.893Z,6.75
2023-02-19T00:31:35.802Z,8.15
2023-02-19T00:34:05.078Z,7.68
2023-02-19T00:36:35.936Z,8.23
2023-02-19T00:39:05.034Z,6.93
2023-02-19T00:41:32.442Z,7.00
2023-02-19T00:44:01.970Z,7.03
2023-02-19T00:46:35.472Z,6.75
2023-02-19T00:49:04.878Z,5.45
2023-02-19T00:51:34.866Z,7.53
2023-02-19T00:54:02.634Z,7.38
2023-02-19T00:56:29.679Z,7.88
2023-02-19T00:58:57.041Z,7.63
2023-02-19T01:01:25.943Z,8.18
2023-02-19T01:03:53.070Z,8.40
2023-02-19T01:06:21.322Z,7.00
2023-02-19T01:08:49.317Z,7.50
2023-02-19T01:11:17.824Z,7.82
2023-02-19T01:13:44.918Z,7.55
2023-02-19T01:16:14.645Z,7.80
2023-02-19T01:18:41.975Z,8.95
2023-02-19T01:21:13.466Z,7.43
2023-02-19T01:23:40.836Z,8.23
2023-02-19T01:26:11.282Z,7.35
2023-02-19T01:28:38.286Z,8.02
2023-02-19T01:31:08.428Z,8.07
2023-02-19T01:33:35.715Z,10.60
2023-02-19T01:36:04.416Z,8.90
2023-02-19T01:38:31.468Z,8.63
2023-02-19T01:41:01.836Z,10.00
2023-02-19T01:43:29.173Z,9.27
2023-02-19T01:45:56.193Z,8.70
2023-02-19T01:48:28.055Z,8.77
2023-02-19T01:51:03.121Z,8.52
2023-02-19T01:53:37.173Z,9.48
2023-02-19T01:56:05.909Z,8.65
2023-02-19T01:58:35.320Z,8.48
2023-02-19T02:01:05.911Z,8.10
2023-02-19T02:03:35.442Z,8.40
2023-02-19T02:06:09.241Z,9.10
2023-02-19T02:11:23.088Z,8.93
2023-02-19T02:13:51.362Z,9.85
2023-02-19T02:16:24.736Z,9.90
2023-02-19T02:18:57.499Z,10.15
2023-02-19T02:21:24.759Z,9.18
2023-02-19T02:24:12.084Z,8.55
2023-02-19T02:27:06.334Z,8.88
2023-02-19T02:29:39.177Z,10.07
2023-02-19T02:32:12.877Z,8.47
2023-02-19T02:34:51.513Z,8.63
2023-02-19T02:37:18.729Z,8.57
2023-02-19T02:39:47.362Z,8.25
2023-02-19T02:42:29.272Z,7.85
2023-02-19T02:45:32.966Z,8.18
2023-02-19T02:48:01.564Z,7.50
2023-02-19T02:51:13.396Z,6.53
2023-02-19T02:54:21.589Z,6.85
2023-02-19T02:56:50.084Z,5.75
2023-02-19T02:59:21.990Z,6.03
2023-02-19T03:02:12.318Z,5.90
2023-02-19T03:05:22.139Z,5.60
2023-02-19T03:08:00.377Z,5.28
2023-02-19T03:10:34.066Z,5.22
2023-02-19T03:16:11.288Z,5.15
2023-02-19T03:19:01.591Z,5.00
2023-02-19T03:21:29.218Z,5.07
2023-02-19T03:24:16.088Z,5.07
2023-02-19T03:26:45.618Z,5.00
2023-02-19T03:29:26.216Z,5.82
2023-02-19T03:32:00.218Z,5.85
2023-02-19T03:34:44.056Z,5.63
2023-02-19T03:37:22.188Z,5.97
2023-02-19T03:39:49.291Z,5.47
2023-02-19T03:42:25.942Z,6.03
2023-02-19T03:45:32.177Z,6.57
2023-02-19T03:47:59.224Z,5.80
2023-02-19T03:50:41.354Z,6.53
2023-02-19T03:53:15.405Z,5.88
2023-02-19T03:55:48.236Z,5.38
2023-02-19T03:58:23.944Z,5.50
2023-02-19T04:01:05.305Z,5.63
2023-02-19T04:03:44.189Z,6.25
2023-02-19T04:06:20.759Z,6.72
2023-02-19T04:08:51.423Z,6.22
2023-02-19T04:11:20.098Z,6.30
2023-02-19T04:13:55.101Z,6.45
2023-02-19T04:16:27.967Z,5.97
2023-02-19T04:18:59.842Z,6.50
2023-02-19T04:21:30.255Z,5.20
2023-02-19T04:24:02.805Z,5.20
2023-02-19T04:26:32.229Z,5.70
2023-02-19T04:28:59.551Z,6.03
2023-02-19T04:31:30.019Z,5.90
2023-02-19T04:33:57.191Z,5.38
2023-02-19T04:36:24.684Z,6.05
2023-02-19T04:38:51.743Z,6.00
2023-02-19T04:41:18.742Z,6.80
2023-02-19T04:43:45.809Z,5.57
2023-02-19T04:46:12.869Z,6.65
2023-02-19T04:48:39.936Z,5.70
2023-02-19T04:51:07.550Z,6.13
2023-02-19T04:53:35.572Z,7.13
2023-02-19T04:56:14.512Z,6.47
2023-02-19T04:58:42.920Z,6.55
2023-02-19T05:01:11.308Z,5.80
2023-02-19T05:03:38.679Z,5.95
2023-02-19T05:06:09.548Z,5.32
2023-02-19T05:08:36.949Z,6.15
2023-02-19T05:11:05.862Z,6.28
2023-02-19T05:13:33.012Z,6.03
2023-02-19T05:16:02.755Z,5.45
2023-02-19T05:18:31.548Z,5.13
2023-02-19T05:21:00.825Z,5.15
2023-02-19T05:23:28.595Z,5.47
2023-02-19T05:25:55.634Z,4.90
2023-02-19T05:28:28.587Z,5.07
2023-02-19T05:30:57.588Z,5.38
2023-02-19T05:33:26.453Z,5.75
2023-02-19T05:35:58.483Z,4.95
2023-02-19T05:38:25.599Z,5.60
2023-02-19T05:40:52.605Z,5.15
2023-02-19T05:43:19.594Z,5.43
2023-02-19T05:45:46.728Z,5.35
2023-02-19T05:48:14.175Z,5.03
2023-02-19T05:50:41.352Z,5.07
2023-02-19T05:53:09.352Z,5.28
2023-02-19T05:55:36.617Z,5.47
2023-02-19T05:58:03.910Z,5.00
2023-02-19T06:00:33.108Z,6.10
2023-02-19T06:03:00.815Z,7.43
2023-02-19T06:05:27.954Z,7.78
2023-02-19T06:07:55.733Z,8.35
2023-02-19T06:10:23.682Z,7.85
2023-02-19T06:12:55.492Z,8.85
2023-02-19T06:15:22.570Z,8.75
2023-02-19T06:17:49.670Z,9.02
2023-02-19T06:20:16.905Z,9.15
2023-02-19T06:22:44.373Z,10.40
2023-02-19T06:25:14.276Z,10.00
2023-02-19T06:27:41.318Z,10.43
2023-02-19T06:30:09.127Z,10.23
2023-02-19T06:32:36.186Z,10.48
2023-02-19T06:35:03.829Z,11.15
2023-02-19T06:37:31.360Z,10.52
2023-02-19T06:39:58.419Z,12.20
2023-02-19T06:42:25.432Z,11.65
2023-02-19T06:44:52.539Z,11.50
2023-02-19T06:47:19.579Z,10.80
2023-02-19T06:49:46.642Z,13.20
2023-02-19T06:52:14.022Z,13.30
2023-02-19T06:54:41.082Z,13.35
2023-02-19T06:57:08.195Z,12.50
2023-02-19T06:59:35.186Z,12.80
2023-02-19T07:02:02.194Z,14.05
2023-02-19T07:04:29.329Z,14.45
2023-02-19T07:06:56.446Z,14.30
2023-02-19T07:09:25.335Z,15.30
2023-02-19T07:11:52.462Z,15.40
2023-02-19T07:14:20.088Z,14.68
2023-02-19T07:16:47.605Z,14.45
2023-02-19T07:19:15.408Z,13.88
2023-02-19T07:21:42.977Z,14.05
2023-02-19T07:24:10.325Z,14.43
2023-02-19T07:26:37.511Z,14.45
2023-02-19T07:29:05.024Z,13.18
2023-02-19T07:31:32.263Z,13.02
2023-02-19T07:33:59.388Z,14.00
2023-02-19T07:36:26.660Z,13.93
2023-02-19T07:38:58.562Z,14.27
2023-02-19T07:41:27.463Z,13.50
2023-02-19T07:43:58.020Z,12.20
2023-02-19T07:46:26.062Z,13.88
2023-02-19T07:48:53.133Z,14.00
2023-02-19T07:51:20.734Z,12.32
2023-02-19T07:53:52.370Z,13.18
2023-02-19T07:56:20.810Z,11.48
2023-02-19T07:58:47.911Z,13.05
2023-02-19T08:01:18.057Z,12.90
2023-02-19T08:03:45.805Z,12.90
2023-02-19T08:06:13.039Z,13.18
2023-02-19T08:08:40.301Z,13.35
2023-02-19T08:11:26.322Z,12.15
2023-02-19T08:13:54.486Z,13.20
2023-02-19T08:16:40.775Z,13.10
2023-02-19T08:19:09.861Z,12.63
2023-02-19T08:21:36.944Z,14.05
2023-02-19T08:24:04.249Z,13.98
2023-02-19T08:26:33.055Z,13.80
2023-02-19T08:29:00.285Z,12.68
2023-02-19T08:31:27.574Z,14.02
2023-02-19T08:33:55.408Z,12.20
2023-02-19T08:36:22.454Z,13.65
2023-02-19T08:38:49.682Z,12.95
2023-02-19T08:41:16.752Z,12.23
2023-02-19T08:43:44.232Z,11.75
2023-02-19T08:46:12.961Z,11.75
2023-02-19T08:48:40.587Z,12.15
2023-02-19T08:51:10.928Z,12.63
2023-02-19T08:53:40.045Z,12.25
2023-02-19T08:56:11.605Z,12.70
2023-02-19T08:58:39.309Z,14.10
2023-02-19T09:01:11.985Z,11.65
2023-02-19T09:03:39.458Z,12.75
2023-02-19T09:06:06.871Z,12.73
2023-02-19T09:08:34.147Z,11.32
2023-02-19T09:11:03.481Z,10.73
2023-02-19T09:13:30.972Z,12.07
2023-02-19T09:15:58.149Z,12.20
2023-02-19T09:18:26.421Z,12.93
2023-02-19T09:20:56.032Z,12.40
2023-02-19T09:23:23.089Z,12.07
2023-02-19T09:25:57.001Z,13.00
2023-02-19T09:28:24.443Z,13.05
2023-02-19T09:30:51.563Z,13.32
2023-02-19T09:33:18.696Z,13.10
2023-02-19T09:35:45.793Z,13.65
2023-02-19T09:38:12.899Z,14.27
2023-02-19T09:40:40.218Z,7.57
2023-02-19T09:43:17.655Z,6.63
2023-02-19T09:45:44.780Z,4.53
2023-02-19T09:48:12.862Z,3.38
2023-02-19T09:50:45.662Z,2.15
2023-02-19T09:53:20.206Z,1.93
2023-02-19T09:55:47.640Z,1.67
2023-02-19T09:58:25.703Z,1.88
2023-02-19T10:00:55.490Z,2.40
2023-02-19T10:03:34.210Z,2.47
2023-02-19T10:06:06.182Z,2.88
2023-02-19T10:08:35.509Z,1.63
2023-02-19T10:11:04.891Z,2.15
2023-02-19T10:13:41.440Z,2.50
2023-02-19T10:16:16.015Z,1.67
2023-02-19T10:18:45.287Z,2.03
2023-02-19T10:21:22.733Z,1.35
2023-02-19T10:24:15.415Z,1.70
2023-02-19T10:26:44.584Z,1.58
2023-02-19T10:29:11.642Z,1.67
2023-02-19T10:31:38.776Z,1.52
2023-02-19T10:34:18.090Z,1.77
2023-02-19T10:36:49.020Z,1.92
2023-02-19T10:39:44.888Z,1.38
2023-02-19T10:42:20.559Z,2.13
2023-02-19T10:44:54.375Z,1.85
2023-02-19T10:49:52.849Z,2.25
2023-02-19T10:52:29.527Z,2.03
2023-02-19T10:55:15.356Z,2.20
2023-02-19T10:57:42.811Z,1.85
2023-02-19T11:00:15.693Z,3.00
2023-02-19T11:02:44.406Z,1.80
2023-02-19T11:05:17.108Z,2.42
2023-02-19T11:07:55.242Z,3.15
2023-02-19T11:10:33.192Z,2.67
2023-02-19T11:13:04.257Z,2.47
2023-02-19T11:15:33.944Z,2.30
2023-02-19T11:18:13.022Z,2.25
2023-02-19T11:21:22.513Z,2.33
2023-02-19T11:23:49.606Z,2.20
2023-02-19T11:26:22.843Z,2.25
2023-02-19T11:29:00.900Z,1.85
2023-02-19T11:31:32.864Z,1.50
2023-02-19T11:34:03.540Z,2.13
2023-02-19T11:36:35.478Z,1.27
2023-02-19T11:39:17.455Z,1.30
2023-02-19T11:42:12.526Z,1.63
2023-02-19T11:44:49.433Z,2.28
2023-02-19T11:47:43.587Z,1.85
2023-02-19T11:50:30.171Z,2.20
2023-02-19T11:53:29.319Z,2.30
2023-02-19T11:55:59.224Z,2.05
2023-02-19T11:58:54.471Z,2.10
2023-02-19T12:01:46.197Z,2.38
2023-02-19T12:04:28.653Z,2.35
2023-02-19T12:07:01.246Z,2.10
2023-02-19T12:09:36.880Z,2.47
2023-02-19T12:12:40.404Z,2.60
2023-02-19T12:15:40.934Z,2.63
2023-02-19T12:18:23.120Z,2.35
2023-02-19T12:21:06.182Z,2.33
2023-02-19T12:24:17.398Z,1.83
2023-02-19T12:26:49.949Z,1.40
2023-02-19T12:29:25.647Z,1.85
2023-02-19T12:32:17.015Z,1.83
2023-02-19T12:35:05.189Z,1.77
2023-02-19T12:37:52.830Z,1.58
2023-02-19T12:40:41.200Z,1.55
2023-02-19T12:43:16.568Z,1.35
2023-02-19T12:46:04.867Z,2.28
2023-02-19T12:48:53.331Z,2.22
2023-02-19T12:51:20.366Z,2.67
2023-02-19T12:53:54.512Z,2.22
2023-02-19T12:56:25.683Z,2.28
2023-02-19T12:59:02.321Z,2.35
2023-02-19T13:01:35.124Z,2.30
2023-02-19T13:04:14.131Z,2.20
2023-02-19T13:06:46.665Z,2.10
2023-02-19T13:09:36.499Z,2.15
2023-02-19T13:12:11.759Z,2.28
2023-02-19T13:15:01.023Z,2.42
2023-02-19T13:17:50.133Z,2.13
2023-02-19T13:20:41.430Z,1.88
2023-02-19T13:23:35.982Z,1.90
2023-02-19T13:26:30.612Z,2.47
2023-02-19T13:29:18.293Z,2.42
2023-02-19T13:32:00.101Z,1.60
2023-02-19T13:34:44.552Z,2.00
2023-02-19T13:37:12.696Z,1.88
2023-02-19T13:39:49.956Z,2.40
2023-02-19T13:42:27.142Z,2.03
2023-02-19T13:44:57.991Z,1.95
2023-02-19T13:47:49.021Z,1.60
2023-02-19T13:50:25.655Z,1.30
2023-02-19T13:52:55.426Z,1.55
2023-02-19T13:55:47.229Z,1.20
2023-02-19T13:58:32.794Z,1.25
2023-02-19T14:01:08.037Z,1.33
2023-02-19T14:03:37.729Z,1.00
2023-02-19T14:06:07.386Z,0.85
2023-02-19T14:08:52.481Z,1.00
2023-02-19T14:11:41.955Z,0.88
2023-02-19T14:14:25.577Z,1.08
2023-02-19T14:17:01.129Z,1.00
2023-02-19T14:19:52.424Z,0.90
2023-02-19T14:22:47.214Z,0.63
2023-02-19T14:25:31.212Z,0.57
2023-02-19T14:30:32.988Z,0.45
2023-02-19T14:33:10.671Z,0.70
2023-02-19T14:35:42.878Z,0.38
2023-02-19T14:38:27.474Z,0.80
2023-02-19T14:40:55.845Z,0.52
2023-02-19T14:43:25.866Z,0.60
2023-02-19T14:46:08.113Z,0.80
2023-02-19T14:48:43.185Z,0.43
2023-02-19T14:51:21.375Z,0.43
2023-02-19T14:53:49.653Z,0.50
2023-02-19T14:56:28.365Z,0.20
2023-02-19T14:59:29.157Z,0.50
2023-02-19T15:02:02.676Z,0.50
2023-02-19T15:04:35.056Z,0.40
2023-02-19T15:07:06.281Z,0.47
2023-02-19T15:09:39.399Z,0.40
2023-02-19T15:12:07.259Z,0.52
2023-02-19T15:14:34.945Z,0.95
2023-02-19T15:17:05.485Z,0.73
2023-02-19T15:19:36.200Z,1.00
2023-02-19T15:22:03.475Z,1.20
2023-02-19T15:24:30.751Z,1.00
2023-02-19T15:26:57.967Z,1.48
2023-02-19T15:29:27.417Z,1.30
2023-02-19T15:32:00.086Z,1.00
2023-02-19T15:34:29.938Z,1.65
2023-02-19T15:37:03.484Z,2.10
2023-02-19T15:39:46.557Z,1.92
2023-02-19T15:42:34.689Z,1.40
2023-02-19T15:45:42.111Z,1.40
2023-02-19T15:48:18.261Z,2.60
2023-02-19T15:50:50.480Z,2.33
2023-02-19T15:53:23.220Z,3.30
2023-02-19T15:55:55.973Z,3.00
2023-02-19T15:58:35.367Z,2.17
2023-02-19T16:01:08.176Z,1.92
2023-02-19T16:03:35.733Z,1.87
2023-02-19T16:06:16.004Z,3.75
2023-02-19T16:08:45.640Z,1.10
2023-02-19T16:11:27.419Z,1.40
2023-02-19T16:14:22.080Z,1.63
2023-02-19T16:16:52.535Z,1.40
2023-02-19T16:19:27.535Z,1.85
2023-02-19T16:21:57.097Z,1.60
2023-02-19T16:24:33.602Z,2.13
2023-02-19T16:27:01.279Z,2.03
2023-02-19T16:29:32.831Z,2.22
2023-02-19T16:32:02.943Z,1.70
2023-02-19T16:34:47.219Z,2.20
2023-02-19T16:37:37.836Z,1.70
2023-02-19T16:40:07.550Z,2.55
2023-02-19T16:42:49.626Z,3.17
2023-02-19T16:45:17.749Z,3.03
2023-02-19T16:47:48.415Z,3.67
2023-02-19T16:50:18.571Z,3.00
2023-02-19T16:52:51.670Z,3.30
2023-02-19T16:55:18.792Z,2.80
2023-02-19T16:57:45.900Z,3.58
2023-02-19T17:00:20.972Z,2.45
2023-02-19T17:02:51.555Z,6.07
2023-02-19T17:05:21.328Z,4.47
2023-02-19T17:07:48.879Z,4.45
2023-02-19T17:10:20.589Z,4.75
2023-02-19T17:12:47.705Z,6.07
2023-02-19T17:15:14.730Z,7.32
2023-02-19T17:17:41.817Z,4.03
2023-02-19T17:20:17.645Z,3.72
2023-02-19T17:22:44.748Z,3.78
2023-02-19T17:25:11.856Z,3.00
2023-02-19T17:27:38.909Z,3.00
2023-02-19T17:30:28.192Z,2.30
2023-02-19T17:32:58.249Z,2.72
2023-02-19T17:35:26.431Z,2.90
2023-02-19T17:37:53.623Z,2.30
2023-02-19T17:40:33.566Z,2.72
2023-02-19T17:43:01.875Z,3.13
2023-02-19T17:45:28.937Z,2.65
2023-02-19T17:47:56.018Z,2.30
2023-02-19T17:50:27.080Z,2.30
2023-02-19T17:52:54.232Z,2.28
2023-02-19T17:55:21.373Z,2.63
2023-02-19T17:57:49.853Z,2.13
2023-02-19T18:00:28.639Z,1.85
2023-02-19T18:02:56.218Z,2.47
2023-02-19T18:05:26.295Z,2.90
2023-02-19T18:07:56.627Z,4.55
2023-02-19T18:10:24.654Z,4.28
2023-02-19T18:12:52.070Z,4.03
2023-02-19T18:15:22.531Z,4.80
2023-02-19T18:17:49.915Z,3.72
2023-02-19T18:20:25.737Z,3.60
2023-02-19T18:22:53.269Z,3.15
2023-02-19T18:25:20.882Z,7.32
2023-02-19T18:27:48.624Z,3.78
2023-02-19T18:30:18.987Z,5.55
2023-02-19T18:32:49.657Z,2.75
2023-02-19T18:35:18.915Z,3.50
2023-02-19T18:37:49.790Z,3.50
2023-02-19T18:40:16.990Z,2.42
2023-02-19T18:42:46.228Z,2.22
2023-02-19T18:45:13.352Z,2.63
2023-02-19T18:47:40.464Z,3.15
2023-02-19T18:50:09.687Z,2.60
2023-02-19T18:52:36.722Z,2.42
2023-02-19T18:55:03.948Z,1.88
2023-02-19T18:57:31.109Z,2.30
2023-02-19T18:59:58.250Z,2.03
2023-02-19T19:02:27.141Z,2.45
2023-02-19T19:04:57.069Z,1.60
2023-02-19T19:07:26.190Z,1.83
2023-02-19T19:09:53.437Z,2.15
2023-02-19T19:12:20.766Z,1.40
2023-02-19T19:14:47.801Z,2.92
2023-02-19T19:17:15.143Z,2.35
2023-02-19T19:19:45.029Z,2.45
2023-02-19T19:22:12.205Z,3.15
2023-02-19T19:24:39.253Z,4.25
2023-02-19T19:27:06.272Z,3.38
2023-02-19T19:29:33.444Z,2.97
2023-02-19T19:32:00.503Z,3.30
2023-02-19T19:34:27.626Z,3.90
2023-02-19T19:36:55.013Z,3.53
2023-02-19T19:39:22.188Z,3.17
2023-02-19T19:41:56.301Z,4.32
2023-02-19T19:44:23.743Z,4.03
2023-02-19T19:46:50.904Z,4.30
2023-02-19T19:49:21.364Z,3.60
2023-02-19T19:51:48.785Z,5.60
2023-02-19T19:54:17.410Z,3.97
2023-02-19T19:56:47.344Z,3.42
2023-02-19T19:59:16.767Z,5.70
2023-02-19T20:01:57.127Z,3.67
2023-02-19T20:04:26.110Z,3.63
2023-02-19T20:06:53.197Z,3.33
2023-02-19T20:09:20.506Z,3.15
2023-02-19T20:11:49.745Z,3.50
2023-02-19T20:14:18.909Z,4.13
2023-02-19T20:16:47.899Z,3.53
2023-02-19T20:19:15.700Z,3.95
2023-02-19T20:21:52.940Z,3.97
2023-02-19T20:24:25.938Z,4.30
2023-02-19T20:26:58.541Z,5.05
2023-02-19T20:29:31.085Z,4.10
2023-02-19T20:32:00.012Z,5.05
2023-02-19T20:34:27.367Z,3.50
2023-02-19T20:36:55.507Z,4.68
2023-02-19T20:39:22.887Z,3.08
2023-02-19T20:41:52.194Z,3.10
2023-02-19T20:44:19.300Z,7.60
2023-02-19T20:46:48.873Z,5.70
2023-02-19T20:49:17.704Z,5.75
2023-02-19T20:51:50.697Z,7.15
2023-02-19T20:54:19.986Z,6.20
2023-02-19T20:56:48.795Z,5.32
2023-02-19T20:59:17.393Z,4.30
2023-02-19T21:01:44.559Z,5.32
2023-02-19T21:04:12.278Z,5.90
2023-02-19T21:06:39.745Z,7.25
2023-02-19T21:09:06.860Z,4.22
2023-02-19T21:11:34.176Z,4.70
2023-02-19T21:14:01.298Z,6.15
2023-02-19T21:16:30.671Z,5.45
2023-02-19T21:18:58.721Z,5.45
2023-02-19T21:21:26.548Z,6.20
2023-02-19T21:23:55.882Z,7.25
2023-02-19T21:26:24.704Z,7.22
2023-02-19T21:28:52.426Z,6.10
2023-02-19T21:31:20.732Z,6.78
2023-02-19T21:33:47.779Z,7.20
2023-02-19T21:36:15.121Z,7.38
2023-02-19T21:38:42.213Z,7.28
2023-02-19T21:41:09.245Z,7.75
2023-02-19T21:43:36.287Z,8.48
2023-02-19T21:46:03.599Z,8.00
2023-02-19T21:48:30.708Z,10.45
2023-02-19T21:50:57.765Z,7.80
2023-02-19T21:53:25.892Z,6.63
2023-02-19T21:55:58.765Z,6.35
2023-02-19T21:58:26.481Z,7.50
2023-02-19T22:00:54.792Z,8.80
2023-02-19T22:03:21.861Z,6.30
2023-02-19T22:05:48.938Z,6.10
2023-02-19T22:08:17.370Z,5.88
2023-02-19T22:10:44.578Z,5.40
2023-02-19T22:13:11.748Z,4.60
2023-02-19T22:15:38.912Z,5.13
2023-02-19T22:18:06.026Z,4.95
2023-02-19T22:20:34.570Z,5.97
2023-02-19T22:23:01.699Z,5.32
2023-02-19T22:25:28.708Z,4.93
2023-02-19T22:27:56.162Z,7.13
2023-02-19T22:30:23.228Z,5.10
2023-02-19T22:32:50.238Z,5.47
2023-02-19T22:35:17.310Z,5.35
2023-02-19T22:37:44.426Z,5.35
2023-02-19T22:40:11.960Z,5.38
2023-02-19T22:42:39.139Z,4.80
2023-02-19T22:45:06.689Z,5.88
2023-02-19T22:47:33.669Z,4.90
2023-02-19T22:50:00.742Z,5.13
2023-02-19T22:52:28.182Z,5.50
2023-02-19T22:54:56.304Z,5.65
2023-02-19T22:57:23.333Z,4.28
2023-02-19T22:59:50.541Z,5.82
2023-02-19T23:02:17.880Z,6.03
2023-02-19T23:04:44.895Z,5.03
2023-02-19T23:07:12.017Z,5.68
2023-02-19T23:09:39.257Z,6.43
2023-02-19T23:12:09.212Z,6.55
2023-02-19T23:14:36.663Z,5.75
2023-02-19T23:17:03.715Z,6.22
2023-02-19T23:19:31.091Z,5.97
2023-02-19T23:21:58.334Z,6.13
2023-02-19T23:24:26.272Z,6.47
2023-02-19T23:26:53.731Z,6.68
2023-02-19T23:29:25.444Z,6.82
2023-02-19T23:31:53.845Z,6.45
2023-02-19T23:34:21.054Z,7.07
2023-02-19T23:36:49.955Z,7.35
2023-02-19T23:39:19.537Z,7.60
2023-02-19T23:41:48.526Z,7.32
2023-02-19T23:44:16.907Z,7.10
2023-02-19T23:46:44.286Z,7.07
2023-02-19T23:49:11.528Z,7.43
2023-02-19T23:51:38.639Z,7.07
2023-02-19T23:54:05.906Z,7.90
2023-02-19T23:56:32.943Z,8.02
2023-02-19T23:59:00.221Z,7.80
